sensor_id;sensor_type;location;lat;lon;timestamp;P1;durP1;ratioP1;P2;durP2;ratioP2
32533;SDS011;18973;48.580;8.912;2022-09-21T00:01:30;1.13;;;1.13;;
32533;SDS011;18973;48.580;8.912;2022-09-21T00:04:00;0.90;;;0.90;;
32533;SDS011;18973;48.580;8.912;2022-09-21T00:06:28;2.35;;;1.50;;
32533;SDS011;18973;48.580;8.912;2022-09-21T00:08:55;1.75;;;1.40;;
32533;SDS011;18973;48.580;8.912;2022-09-21T00:11:22;1.30;;;1.20;;
32533;SDS011;18973;48.580;8.912;2022-09-21T00:13:55;1.08;;;1.08;;
32533;SDS011;18973;48.580;8.912;2022-09-21T00:16:28;1.65;;;1.55;;
32533;SDS011;18973;48.580;8.912;2022-09-21T00:18:54;1.58;;;1.40;;
32533;SDS011;18973;48.580;8.912;2022-09-21T00:21:19;1.40;;;1.17;;
32533;SDS011;18973;48.580;8.912;2022-09-21T00:23:45;1.48;;;1.38;;
32533;SDS011;18973;48.580;8.912;2022-09-21T00:26:15;1.25;;;1.20;;
32533;SDS011;18973;48.580;8.912;2022-09-21T00:28:42;1.13;;;1.13;;
32533;SDS011;18973;48.580;8.912;2022-09-21T00:31:09;1.77;;;1.23;;
32533;SDS011;18973;48.580;8.912;2022-09-21T00:33:40;1.10;;;1.10;;
32533;SDS011;18973;48.580;8.912;2022-09-21T00:36:08;1.30;;;1.20;;
32533;SDS011;18973;48.580;8.912;2022-09-21T00:38:36;1.38;;;1.00;;
32533;SDS011;18973;48.580;8.912;2022-09-21T00:41:03;1.10;;;1.00;;
32533;SDS011;18973;48.580;8.912;2022-09-21T00:43:34;0.90;;;0.90;;
32533;SDS011;18973;48.580;8.912;2022-09-21T00:46:05;1.10;;;1.10;;
32533;SDS011;18973;48.580;8.912;2022-09-21T00:48:36;2.05;;;1.85;;
32533;SDS011;18973;48.580;8.912;2022-09-21T00:51:04;1.60;;;1.17;;
32533;SDS011;18973;48.580;8.912;2022-09-21T00:53:32;1.05;;;1.02;;
32533;SDS011;18973;48.580;8.912;2022-09-21T00:55:59;1.20;;;1.10;;
32533;SDS011;18973;48.580;8.912;2022-09-21T00:58:30;1.27;;;1.15;;
32533;SDS011;18973;48.580;8.912;2022-09-21T01:01:03;1.45;;;1.35;;
32533;SDS011;18973;48.580;8.912;2022-09-21T01:03:29;1.52;;;1.38;;
32533;SDS011;18973;48.580;8.912;2022-09-21T01:05:56;1.85;;;1.52;;
32533;SDS011;18973;48.580;8.912;2022-09-21T01:08:22;1.60;;;1.50;;
32533;SDS011;18973;48.580;8.912;2022-09-21T01:30:28;1.63;;;1.55;;
32533;SDS011;18973;48.580;8.912;2022-09-21T01:33:05;1.13;;;1.13;;
32533;SDS011;18973;48.580;8.912;2022-09-21T01:35:38;1.45;;;1.35;;
32533;SDS011;18973;48.580;8.912;2022-09-21T01:41:07;1.10;;;1.10;;
32533;SDS011;18973;48.580;8.912;2022-09-21T01:43:37;1.38;;;1.35;;
32533;SDS011;18973;48.580;8.912;2022-09-21T01:46:09;1.25;;;1.25;;
32533;SDS011;18973;48.580;8.912;2022-09-21T01:48:38;1.83;;;1.73;;
32533;SDS011;18973;48.580;8.912;2022-09-21T01:51:09;1.42;;;1.33;;
32533;SDS011;18973;48.580;8.912;2022-09-21T01:56:15;1.08;;;1.08;;
32533;SDS011;18973;48.580;8.912;2022-09-21T02:01:13;1.42;;;1.33;;
32533;SDS011;18973;48.580;8.912;2022-09-21T02:06:13;1.58;;;1.48;;
32533;SDS011;18973;48.580;8.912;2022-09-21T02:08:40;1.23;;;1.23;;
32533;SDS011;18973;48.580;8.912;2022-09-21T02:11:07;1.13;;;1.10;;
32533;SDS011;18973;48.580;8.912;2022-09-21T02:13:37;1.50;;;1.40;;
32533;SDS011;18973;48.580;8.912;2022-09-21T02:18:34;1.30;;;1.20;;
32533;SDS011;18973;48.580;8.912;2022-09-21T02:21:33;1.42;;;1.33;;
32533;SDS011;18973;48.580;8.912;2022-09-21T02:27:07;1.20;;;1.20;;
32533;SDS011;18973;48.580;8.912;2022-09-21T02:35:00;1.48;;;1.38;;
32533;SDS011;18973;48.580;8.912;2022-09-21T02:40:09;1.50;;;1.50;;
32533;SDS011;18973;48.580;8.912;2022-09-21T02:42:55;3.30;;;1.98;;
32533;SDS011;18973;48.580;8.912;2022-09-21T02:45:26;1.88;;;1.77;;
32533;SDS011;18973;48.580;8.912;2022-09-21T02:48:04;2.47;;;2.13;;
32533;SDS011;18973;48.580;8.912;2022-09-21T02:50:45;1.90;;;1.80;;
32533;SDS011;18973;48.580;8.912;2022-09-21T02:53:17;1.52;;;1.52;;
32533;SDS011;18973;48.580;8.912;2022-09-21T02:55:46;1.70;;;1.60;;
32533;SDS011;18973;48.580;8.912;2022-09-21T02:58:13;1.70;;;1.60;;
32533;SDS011;18973;48.580;8.912;2022-09-21T03:00:40;1.83;;;1.73;;
32533;SDS011;18973;48.580;8.912;2022-09-21T03:03:13;1.75;;;1.65;;
32533;SDS011;18973;48.580;8.912;2022-09-21T03:05:44;1.65;;;1.55;;
32533;SDS011;18973;48.580;8.912;2022-09-21T03:08:12;1.35;;;1.30;;
32533;SDS011;18973;48.580;8.912;2022-09-21T03:10:38;1.63;;;1.52;;
32533;SDS011;18973;48.580;8.912;2022-09-21T03:13:08;1.80;;;1.70;;
32533;SDS011;18973;48.580;8.912;2022-09-21T03:15:35;1.40;;;1.40;;
32533;SDS011;18973;48.580;8.912;2022-09-21T03:18:02;1.98;;;1.88;;
32533;SDS011;18973;48.580;8.912;2022-09-21T03:20:29;1.90;;;1.80;;
32533;SDS011;18973;48.580;8.912;2022-09-21T03:22:58;1.17;;;1.17;;
32533;SDS011;18973;48.580;8.912;2022-09-21T03:25:25;1.30;;;1.30;;
32533;SDS011;18973;48.580;8.912;2022-09-21T03:27:52;2.00;;;1.90;;
32533;SDS011;18973;48.580;8.912;2022-09-21T03:30:18;1.60;;;1.50;;
32533;SDS011;18973;48.580;8.912;2022-09-21T03:32:47;1.67;;;1.58;;
32533;SDS011;18973;48.580;8.912;2022-09-21T03:35:13;1.48;;;1.38;;
32533;SDS011;18973;48.580;8.912;2022-09-21T03:37:39;1.48;;;1.38;;
32533;SDS011;18973;48.580;8.912;2022-09-21T03:40:05;1.73;;;1.63;;
32533;SDS011;18973;48.580;8.912;2022-09-21T03:42:31;2.92;;;2.63;;
32533;SDS011;18973;48.580;8.912;2022-09-21T03:44:57;1.42;;;1.33;;
32533;SDS011;18973;48.580;8.912;2022-09-21T03:47:23;1.88;;;1.77;;
32533;SDS011;18973;48.580;8.912;2022-09-21T03:49:48;1.70;;;1.60;;
32533;SDS011;18973;48.580;8.912;2022-09-21T03:52:14;1.80;;;1.70;;
32533;SDS011;18973;48.580;8.912;2022-09-21T03:54:40;1.75;;;1.65;;
32533;SDS011;18973;48.580;8.912;2022-09-21T03:57:05;3.40;;;2.17;;
32533;SDS011;18973;48.580;8.912;2022-09-21T03:59:32;1.90;;;1.80;;
32533;SDS011;18973;48.580;8.912;2022-09-21T04:01:59;1.95;;;1.75;;
32533;SDS011;18973;48.580;8.912;2022-09-21T04:04:25;2.38;;;2.17;;
32533;SDS011;18973;48.580;8.912;2022-09-21T04:06:50;1.75;;;1.65;;
32533;SDS011;18973;48.580;8.912;2022-09-21T04:09:16;1.85;;;1.75;;
32533;SDS011;18973;48.580;8.912;2022-09-21T04:11:43;1.80;;;1.70;;
32533;SDS011;18973;48.580;8.912;2022-09-21T04:14:10;2.72;;;2.25;;
32533;SDS011;18973;48.580;8.912;2022-09-21T04:16:36;1.92;;;1.83;;
32533;SDS011;18973;48.580;8.912;2022-09-21T04:19:02;2.20;;;2.00;;
32533;SDS011;18973;48.580;8.912;2022-09-21T04:21:28;1.70;;;1.60;;
32533;SDS011;18973;48.580;8.912;2022-09-21T04:23:54;3.10;;;2.13;;
32533;SDS011;18973;48.580;8.912;2022-09-21T04:26:21;2.47;;;2.28;;
32533;SDS011;18973;48.580;8.912;2022-09-21T04:28:49;1.98;;;1.88;;
32533;SDS011;18973;48.580;8.912;2022-09-21T04:31:15;4.13;;;2.15;;
32533;SDS011;18973;48.580;8.912;2022-09-21T04:33:41;2.28;;;1.80;;
32533;SDS011;18973;48.580;8.912;2022-09-21T04:36:07;1.95;;;1.85;;
32533;SDS011;18973;48.580;8.912;2022-09-21T04:38:35;2.72;;;1.92;;
32533;SDS011;18973;48.580;8.912;2022-09-21T04:41:02;1.52;;;1.42;;
32533;SDS011;18973;48.580;8.912;2022-09-21T04:43:27;1.73;;;1.63;;
32533;SDS011;18973;48.580;8.912;2022-09-21T04:45:53;2.30;;;2.20;;
32533;SDS011;18973;48.580;8.912;2022-09-21T04:48:19;1.90;;;1.80;;
32533;SDS011;18973;48.580;8.912;2022-09-21T04:50:48;1.70;;;1.60;;
32533;SDS011;18973;48.580;8.912;2022-09-21T04:53:14;2.40;;;2.20;;
32533;SDS011;18973;48.580;8.912;2022-09-21T04:55:40;2.45;;;2.25;;
32533;SDS011;18973;48.580;8.912;2022-09-21T04:58:06;1.65;;;1.58;;
32533;SDS011;18973;48.580;8.912;2022-09-21T05:00:32;2.22;;;2.03;;
32533;SDS011;18973;48.580;8.912;2022-09-21T05:03:02;2.00;;;1.90;;
32533;SDS011;18973;48.580;8.912;2022-09-21T05:05:33;1.35;;;1.30;;
32533;SDS011;18973;48.580;8.912;2022-09-21T05:08:02;1.73;;;1.63;;
32533;SDS011;18973;48.580;8.912;2022-09-21T05:10:28;2.38;;;2.17;;
32533;SDS011;18973;48.580;8.912;2022-09-21T05:12:54;2.20;;;2.05;;
32533;SDS011;18973;48.580;8.912;2022-09-21T05:15:20;2.85;;;2.33;;
32533;SDS011;18973;48.580;8.912;2022-09-21T05:17:46;2.08;;;1.98;;
32533;SDS011;18973;48.580;8.912;2022-09-21T05:20:11;1.83;;;1.73;;
32533;SDS011;18973;48.580;8.912;2022-09-21T05:22:37;1.67;;;1.58;;
32533;SDS011;18973;48.580;8.912;2022-09-21T05:25:03;2.15;;;2.05;;
32533;SDS011;18973;48.580;8.912;2022-09-21T05:27:29;2.08;;;1.75;;
32533;SDS011;18973;48.580;8.912;2022-09-21T05:29:55;2.13;;;2.03;;
32533;SDS011;18973;48.580;8.912;2022-09-21T05:35:01;1.90;;;1.80;;
32533;SDS011;18973;48.580;8.912;2022-09-21T05:40:28;1.73;;;1.63;;
32533;SDS011;18973;48.580;8.912;2022-09-21T05:42:54;2.72;;;2.45;;
32533;SDS011;18973;48.580;8.912;2022-09-21T05:45:20;2.90;;;1.90;;
32533;SDS011;18973;48.580;8.912;2022-09-21T05:50:41;1.90;;;1.70;;
32533;SDS011;18973;48.580;8.912;2022-09-21T06:04:46;1.98;;;1.88;;
32533;SDS011;18973;48.580;8.912;2022-09-21T06:07:13;2.25;;;2.10;;
32533;SDS011;18973;48.580;8.912;2022-09-21T06:09:39;2.42;;;2.17;;
32533;SDS011;18973;48.580;8.912;2022-09-21T06:12:04;2.72;;;2.50;;
32533;SDS011;18973;48.580;8.912;2022-09-21T06:14:30;1.83;;;1.73;;
32533;SDS011;18973;48.580;8.912;2022-09-21T06:16:56;2.05;;;1.95;;
32533;SDS011;18973;48.580;8.912;2022-09-21T06:19:22;2.63;;;1.90;;
32533;SDS011;18973;48.580;8.912;2022-09-21T06:21:47;2.17;;;1.98;;
32533;SDS011;18973;48.580;8.912;2022-09-21T06:24:13;1.50;;;1.40;;
32533;SDS011;18973;48.580;8.912;2022-09-21T06:26:39;1.50;;;1.40;;
32533;SDS011;18973;48.580;8.912;2022-09-21T06:29:07;2.67;;;1.60;;
32533;SDS011;18973;48.580;8.912;2022-09-21T06:31:33;1.58;;;1.48;;
32533;SDS011;18973;48.580;8.912;2022-09-21T06:34:02;1.88;;;1.77;;
32533;SDS011;18973;48.580;8.912;2022-09-21T06:36:28;1.85;;;1.75;;
32533;SDS011;18973;48.580;8.912;2022-09-21T06:38:54;1.40;;;1.33;;
32533;SDS011;18973;48.580;8.912;2022-09-21T06:41:19;1.85;;;1.75;;
32533;SDS011;18973;48.580;8.912;2022-09-21T06:43:45;1.85;;;1.75;;
32533;SDS011;18973;48.580;8.912;2022-09-21T06:46:11;2.75;;;1.73;;
32533;SDS011;18973;48.580;8.912;2022-09-21T06:48:36;1.60;;;1.50;;
32533;SDS011;18973;48.580;8.912;2022-09-21T06:51:03;1.63;;;1.52;;
32533;SDS011;18973;48.580;8.912;2022-09-21T06:53:31;1.67;;;1.58;;
32533;SDS011;18973;48.580;8.912;2022-09-21T06:56:07;1.30;;;1.23;;
32533;SDS011;18973;48.580;8.912;2022-09-21T06:58:34;3.55;;;3.00;;
32533;SDS011;18973;48.580;8.912;2022-09-21T07:01:08;2.10;;;2.00;;
32533;SDS011;18973;48.580;8.912;2022-09-21T07:03:35;1.93;;;1.83;;
32533;SDS011;18973;48.580;8.912;2022-09-21T07:06:02;1.60;;;1.50;;
32533;SDS011;18973;48.580;8.912;2022-09-21T07:08:29;2.40;;;2.20;;
32533;SDS011;18973;48.580;8.912;2022-09-21T07:10:58;2.70;;;2.35;;
32533;SDS011;18973;48.580;8.912;2022-09-21T07:13:25;1.52;;;1.42;;
32533;SDS011;18973;48.580;8.912;2022-09-21T07:15:51;2.22;;;1.70;;
32533;SDS011;18973;48.580;8.912;2022-09-21T07:18:17;2.28;;;2.08;;
32533;SDS011;18973;48.580;8.912;2022-09-21T07:20:43;1.92;;;1.80;;
32533;SDS011;18973;48.580;8.912;2022-09-21T07:23:12;1.52;;;1.42;;
32533;SDS011;18973;48.580;8.912;2022-09-21T07:25:43;1.45;;;1.30;;
32533;SDS011;18973;48.580;8.912;2022-09-21T07:28:09;1.58;;;1.48;;
32533;SDS011;18973;48.580;8.912;2022-09-21T07:30:37;1.48;;;1.10;;
32533;SDS011;18973;48.580;8.912;2022-09-21T07:33:05;1.48;;;1.38;;
32533;SDS011;18973;48.580;8.912;2022-09-21T07:35:32;1.35;;;1.35;;
32533;SDS011;18973;48.580;8.912;2022-09-21T07:37:59;1.75;;;1.65;;
32533;SDS011;18973;48.580;8.912;2022-09-21T07:40:25;1.60;;;1.40;;
32533;SDS011;18973;48.580;8.912;2022-09-21T07:42:51;1.52;;;1.42;;
32533;SDS011;18973;48.580;8.912;2022-09-21T07:45:21;1.40;;;1.30;;
32533;SDS011;18973;48.580;8.912;2022-09-21T07:47:46;1.95;;;1.20;;
32533;SDS011;18973;48.580;8.912;2022-09-21T07:50:12;2.28;;;1.00;;
32533;SDS011;18973;48.580;8.912;2022-09-21T07:52:38;2.35;;;1.88;;
32533;SDS011;18973;48.580;8.912;2022-09-21T07:55:04;2.17;;;1.98;;
32533;SDS011;18973;48.580;8.912;2022-09-21T07:57:30;2.20;;;1.52;;
32533;SDS011;18973;48.580;8.912;2022-09-21T08:00:14;3.17;;;1.40;;
32533;SDS011;18973;48.580;8.912;2022-09-21T08:02:40;1.27;;;1.17;;
32533;SDS011;18973;48.580;8.912;2022-09-21T08:05:06;1.63;;;1.20;;
32533;SDS011;18973;48.580;8.912;2022-09-21T08:07:32;2.13;;;1.40;;
32533;SDS011;18973;48.580;8.912;2022-09-21T08:09:58;1.60;;;1.50;;
32533;SDS011;18973;48.580;8.912;2022-09-21T08:12:24;1.50;;;1.40;;
32533;SDS011;18973;48.580;8.912;2022-09-21T08:14:49;2.22;;;1.40;;
32533;SDS011;18973;48.580;8.912;2022-09-21T08:17:16;1.52;;;1.10;;
32533;SDS011;18973;48.580;8.912;2022-09-21T08:19:41;1.80;;;1.00;;
32533;SDS011;18973;48.580;8.912;2022-09-21T08:22:07;1.90;;;1.52;;
32533;SDS011;18973;48.580;8.912;2022-09-21T08:24:33;2.13;;;1.45;;
32533;SDS011;18973;48.580;8.912;2022-09-21T08:26:59;1.00;;;0.95;;
32533;SDS011;18973;48.580;8.912;2022-09-21T08:29:25;1.38;;;1.27;;
32533;SDS011;18973;48.580;8.912;2022-09-21T08:31:51;4.57;;;2.08;;
32533;SDS011;18973;48.580;8.912;2022-09-21T08:34:17;1.75;;;1.27;;
32533;SDS011;18973;48.580;8.912;2022-09-21T08:36:44;1.65;;;1.30;;
32533;SDS011;18973;48.580;8.912;2022-09-21T08:39:10;2.25;;;1.38;;
32533;SDS011;18973;48.580;8.912;2022-09-21T08:44:24;0.93;;;0.93;;
32533;SDS011;18973;48.580;8.912;2022-09-21T08:47:05;1.15;;;0.90;;
32533;SDS011;18973;48.580;8.912;2022-09-21T08:49:48;0.70;;;0.70;;
32533;SDS011;18973;48.580;8.912;2022-09-21T08:52:18;0.60;;;0.60;;
32533;SDS011;18973;48.580;8.912;2022-09-21T08:57:30;0.65;;;0.32;;
32533;SDS011;18973;48.580;8.912;2022-09-21T08:59:58;0.55;;;0.50;;
32533;SDS011;18973;48.580;8.912;2022-09-21T09:18:49;0.20;;;0.20;;
32533;SDS011;18973;48.580;8.912;2022-09-21T09:21:25;0.57;;;0.57;;
32533;SDS011;18973;48.580;8.912;2022-09-21T09:24:02;0.52;;;0.32;;
32533;SDS011;18973;48.580;8.912;2022-09-21T09:29:14;0.10;;;0.10;;
32533;SDS011;18973;48.580;8.912;2022-09-21T09:31:51;0.10;;;0.10;;
32533;SDS011;18973;48.580;8.912;2022-09-21T09:37:12;0.32;;;0.32;;
32533;SDS011;18973;48.580;8.912;2022-09-21T09:39:42;0.73;;;0.20;;
32533;SDS011;18973;48.580;8.912;2022-09-21T09:50:43;0.55;;;0.45;;
32533;SDS011;18973;48.580;8.912;2022-09-21T09:53:16;0.30;;;0.30;;
32533;SDS011;18973;48.580;8.912;2022-09-21T09:55:47;0.22;;;0.20;;
32533;SDS011;18973;48.580;8.912;2022-09-21T09:58:37;0.55;;;0.55;;
32533;SDS011;18973;48.580;8.912;2022-09-21T10:01:01;0.10;;;0.10;;
32533;SDS011;18973;48.580;8.912;2022-09-21T10:03:27;0.10;;;0.10;;
32533;SDS011;18973;48.580;8.912;2022-09-21T10:05:52;0.20;;;0.20;;
32533;SDS011;18973;48.580;8.912;2022-09-21T10:08:39;0.22;;;0.22;;
32533;SDS011;18973;48.580;8.912;2022-09-21T10:11:06;0.13;;;0.13;;
32533;SDS011;18973;48.580;8.912;2022-09-21T10:13:34;0.10;;;0.10;;
32533;SDS011;18973;48.580;8.912;2022-09-21T10:16:03;0.40;;;0.40;;
32533;SDS011;18973;48.580;8.912;2022-09-21T10:18:38;0.32;;;0.20;;
32533;SDS011;18973;48.580;8.912;2022-09-21T10:26:46;0.30;;;0.30;;
32533;SDS011;18973;48.580;8.912;2022-09-21T10:37:38;0.47;;;0.30;;
32533;SDS011;18973;48.580;8.912;2022-09-21T10:40:39;0.50;;;0.50;;
32533;SDS011;18973;48.580;8.912;2022-09-21T10:43:00;0.47;;;0.40;;
32533;SDS011;18973;48.580;8.912;2022-09-21T10:45:27;0.50;;;0.40;;
32533;SDS011;18973;48.580;8.912;2022-09-21T10:47:58;0.20;;;0.20;;
32533;SDS011;18973;48.580;8.912;2022-09-21T10:55:35;0.20;;;0.20;;
32533;SDS011;18973;48.580;8.912;2022-09-21T10:58:21;0.20;;;0.20;;
32533;SDS011;18973;48.580;8.912;2022-09-21T11:00:48;0.15;;;0.15;;
32533;SDS011;18973;48.580;8.912;2022-09-21T11:09:12;0.85;;;0.57;;
32533;SDS011;18973;48.580;8.912;2022-09-21T11:14:35;0.10;;;0.10;;
32533;SDS011;18973;48.580;8.912;2022-09-21T11:27:53;0.10;;;0.10;;
32533;SDS011;18973;48.580;8.912;2022-09-21T11:30:36;0.10;;;0.10;;
32533;SDS011;18973;48.580;8.912;2022-09-21T11:36:19;0.40;;;0.40;;
32533;SDS011;18973;48.580;8.912;2022-09-21T11:44:43;0.20;;;0.20;;
32533;SDS011;18973;48.580;8.912;2022-09-21T12:03:48;0.10;;;0.10;;
32533;SDS011;18973;48.580;8.912;2022-09-21T12:11:42;0.10;;;0.10;;
32533;SDS011;18973;48.580;8.912;2022-09-21T12:14:31;0.20;;;0.13;;
32533;SDS011;18973;48.580;8.912;2022-09-21T12:17:23;2.03;;;0.65;;
32533;SDS011;18973;48.580;8.912;2022-09-21T12:22:30;0.30;;;0.20;;
32533;SDS011;18973;48.580;8.912;2022-09-21T12:25:03;0.10;;;0.10;;
32533;SDS011;18973;48.580;8.912;2022-09-21T12:27:39;0.17;;;0.17;;
32533;SDS011;18973;48.580;8.912;2022-09-21T12:30:15;0.10;;;0.10;;
32533;SDS011;18973;48.580;8.912;2022-09-21T12:41:08;0.00;;;0.00;;
32533;SDS011;18973;48.580;8.912;2022-09-21T12:46:24;0.10;;;0.10;;
32533;SDS011;18973;48.580;8.912;2022-09-21T12:48:55;0.10;;;0.10;;
32533;SDS011;18973;48.580;8.912;2022-09-21T12:51:36;0.10;;;0.10;;
32533;SDS011;18973;48.580;8.912;2022-09-21T12:54:16;0.05;;;0.05;;
32533;SDS011;18973;48.580;8.912;2022-09-21T12:56:50;0.40;;;0.40;;
32533;SDS011;18973;48.580;8.912;2022-09-21T12:59:34;0.10;;;0.10;;
32533;SDS011;18973;48.580;8.912;2022-09-21T13:08:11;0.10;;;0.10;;
32533;SDS011;18973;48.580;8.912;2022-09-21T13:10:44;0.65;;;0.20;;
32533;SDS011;18973;48.580;8.912;2022-09-21T13:15:50;0.10;;;0.10;;
32533;SDS011;18973;48.580;8.912;2022-09-21T13:21:00;0.20;;;0.10;;
32533;SDS011;18973;48.580;8.912;2022-09-21T13:23:40;0.10;;;0.10;;
32533;SDS011;18973;48.580;8.912;2022-09-21T13:26:07;0.10;;;0.10;;
32533;SDS011;18973;48.580;8.912;2022-09-21T13:28:58;0.20;;;0.20;;
32533;SDS011;18973;48.580;8.912;2022-09-21T13:44:59;0.10;;;0.10;;
32533;SDS011;18973;48.580;8.912;2022-09-21T13:47:54;0.10;;;0.10;;
32533;SDS011;18973;48.580;8.912;2022-09-21T13:50:37;0.15;;;0.15;;
32533;SDS011;18973;48.580;8.912;2022-09-21T13:53:07;0.10;;;0.10;;
32533;SDS011;18973;48.580;8.912;2022-09-21T13:55:50;0.10;;;0.10;;
32533;SDS011;18973;48.580;8.912;2022-09-21T13:58:23;2.20;;;0.15;;
32533;SDS011;18973;48.580;8.912;2022-09-21T14:00:52;0.00;;;0.00;;
32533;SDS011;18973;48.580;8.912;2022-09-21T14:03:38;0.10;;;0.10;;
32533;SDS011;18973;48.580;8.912;2022-09-21T14:06:13;0.10;;;0.10;;
32533;SDS011;18973;48.580;8.912;2022-09-21T14:08:50;0.10;;;0.10;;
32533;SDS011;18973;48.580;8.912;2022-09-21T14:24:34;0.10;;;0.10;;
32533;SDS011;18973;48.580;8.912;2022-09-21T14:30:15;0.10;;;0.10;;
32533;SDS011;18973;48.580;8.912;2022-09-21T14:35:25;0.10;;;0.10;;
32533;SDS011;18973;48.580;8.912;2022-09-21T14:37:55;0.10;;;0.10;;
32533;SDS011;18973;48.580;8.912;2022-09-21T14:40:45;0.22;;;0.22;;
32533;SDS011;18973;48.580;8.912;2022-09-21T14:43:19;0.10;;;0.10;;
32533;SDS011;18973;48.580;8.912;2022-09-21T15:10:36;0.20;;;0.20;;
32533;SDS011;18973;48.580;8.912;2022-09-21T15:18:32;1.55;;;0.13;;
32533;SDS011;18973;48.580;8.912;2022-09-21T15:21:15;0.88;;;0.17;;
32533;SDS011;18973;48.580;8.912;2022-09-21T15:24:23;0.73;;;0.43;;
32533;SDS011;18973;48.580;8.912;2022-09-21T15:26:52;0.20;;;0.20;;
32533;SDS011;18973;48.580;8.912;2022-09-21T15:29:29;1.48;;;0.32;;
32533;SDS011;18973;48.580;8.912;2022-09-21T15:31:55;0.35;;;0.32;;
32533;SDS011;18973;48.580;8.912;2022-09-21T15:34:23;0.35;;;0.35;;
32533;SDS011;18973;48.580;8.912;2022-09-21T15:36:49;0.80;;;0.50;;
32533;SDS011;18973;48.580;8.912;2022-09-21T15:42:23;0.10;;;0.10;;
32533;SDS011;18973;48.580;8.912;2022-09-21T15:44:46;0.50;;;0.38;;
32533;SDS011;18973;48.580;8.912;2022-09-21T15:47:15;1.02;;;0.30;;
32533;SDS011;18973;48.580;8.912;2022-09-21T15:49:44;0.40;;;0.40;;
32533;SDS011;18973;48.580;8.912;2022-09-21T15:52:11;2.17;;;0.20;;
32533;SDS011;18973;48.580;8.912;2022-09-21T15:54:45;0.20;;;0.20;;
32533;SDS011;18973;48.580;8.912;2022-09-21T16:02:39;0.10;;;0.10;;
32533;SDS011;18973;48.580;8.912;2022-09-21T16:05:11;0.15;;;0.15;;
32533;SDS011;18973;48.580;8.912;2022-09-21T16:07:39;0.38;;;0.30;;
32533;SDS011;18973;48.580;8.912;2022-09-21T16:12:59;0.10;;;0.10;;
32533;SDS011;18973;48.580;8.912;2022-09-21T16:16:01;0.30;;;0.30;;
32533;SDS011;18973;48.580;8.912;2022-09-21T16:21:07;0.22;;;0.22;;
32533;SDS011;18973;48.580;8.912;2022-09-21T16:23:45;0.35;;;0.30;;
32533;SDS011;18973;48.580;8.912;2022-09-21T16:26:20;0.30;;;0.30;;
32533;SDS011;18973;48.580;8.912;2022-09-21T16:28:54;0.73;;;0.28;;
32533;SDS011;18973;48.580;8.912;2022-09-21T16:31:26;0.20;;;0.20;;
32533;SDS011;18973;48.580;8.912;2022-09-21T16:38:55;0.30;;;0.30;;
32533;SDS011;18973;48.580;8.912;2022-09-21T16:41:21;0.52;;;0.30;;
32533;SDS011;18973;48.580;8.912;2022-09-21T16:43:56;0.32;;;0.32;;
32533;SDS011;18973;48.580;8.912;2022-09-21T16:46:22;0.30;;;0.30;;
32533;SDS011;18973;48.580;8.912;2022-09-21T16:48:50;0.22;;;0.22;;
32533;SDS011;18973;48.580;8.912;2022-09-21T16:51:16;0.20;;;0.20;;
32533;SDS011;18973;48.580;8.912;2022-09-21T16:53:46;0.20;;;0.20;;
32533;SDS011;18973;48.580;8.912;2022-09-21T16:56:12;0.22;;;0.20;;
32533;SDS011;18973;48.580;8.912;2022-09-21T16:58:40;0.47;;;0.40;;
32533;SDS011;18973;48.580;8.912;2022-09-21T17:01:09;0.40;;;0.40;;
32533;SDS011;18973;48.580;8.912;2022-09-21T17:03:37;0.28;;;0.28;;
32533;SDS011;18973;48.580;8.912;2022-09-21T17:06:06;0.40;;;0.40;;
32533;SDS011;18973;48.580;8.912;2022-09-21T17:08:44;0.15;;;0.15;;
32533;SDS011;18973;48.580;8.912;2022-09-21T17:11:12;0.73;;;0.73;;
32533;SDS011;18973;48.580;8.912;2022-09-21T17:13:43;0.20;;;0.20;;
32533;SDS011;18973;48.580;8.912;2022-09-21T17:16:21;0.30;;;0.30;;
32533;SDS011;18973;48.580;8.912;2022-09-21T17:18:48;0.30;;;0.30;;
32533;SDS011;18973;48.580;8.912;2022-09-21T17:21:15;0.35;;;0.35;;
32533;SDS011;18973;48.580;8.912;2022-09-21T17:23:41;0.52;;;0.52;;
32533;SDS011;18973;48.580;8.912;2022-09-21T17:26:14;0.40;;;0.38;;
32533;SDS011;18973;48.580;8.912;2022-09-21T17:28:43;0.20;;;0.20;;
32533;SDS011;18973;48.580;8.912;2022-09-21T17:31:13;0.30;;;0.30;;
32533;SDS011;18973;48.580;8.912;2022-09-21T17:33:42;0.30;;;0.30;;
32533;SDS011;18973;48.580;8.912;2022-09-21T17:36:13;0.70;;;0.47;;
32533;SDS011;18973;48.580;8.912;2022-09-21T17:38:40;0.30;;;0.30;;
32533;SDS011;18973;48.580;8.912;2022-09-21T17:44:04;0.60;;;0.60;;
32533;SDS011;18973;48.580;8.912;2022-09-21T17:49:23;2.80;;;1.52;;
32533;SDS011;18973;48.580;8.912;2022-09-21T17:51:54;2.15;;;0.90;;
32533;SDS011;18973;48.580;8.912;2022-09-21T17:54:39;1.88;;;0.75;;
32533;SDS011;18973;48.580;8.912;2022-09-21T17:57:14;0.35;;;0.35;;
32533;SDS011;18973;48.580;8.912;2022-09-21T18:02:22;0.30;;;0.30;;
32533;SDS011;18973;48.580;8.912;2022-09-21T18:04:50;0.30;;;0.30;;
32533;SDS011;18973;48.580;8.912;2022-09-21T18:07:22;0.30;;;0.30;;
32533;SDS011;18973;48.580;8.912;2022-09-21T18:09:49;0.40;;;0.40;;
32533;SDS011;18973;48.580;8.912;2022-09-21T18:12:26;0.40;;;0.40;;
32533;SDS011;18973;48.580;8.912;2022-09-21T18:20:40;0.63;;;0.63;;
32533;SDS011;18973;48.580;8.912;2022-09-21T18:25:57;0.43;;;0.43;;
32533;SDS011;18973;48.580;8.912;2022-09-21T18:28:35;0.70;;;0.70;;
32533;SDS011;18973;48.580;8.912;2022-09-21T18:31:17;0.70;;;0.70;;
32533;SDS011;18973;48.580;8.912;2022-09-21T18:36:56;0.70;;;0.70;;
32533;SDS011;18973;48.580;8.912;2022-09-21T18:45:47;0.55;;;0.52;;
32533;SDS011;18973;48.580;8.912;2022-09-21T18:48:36;1.10;;;0.55;;
32533;SDS011;18973;48.580;8.912;2022-09-21T18:51:16;1.00;;;1.00;;
32533;SDS011;18973;48.580;8.912;2022-09-21T18:53:49;0.60;;;0.60;;
32533;SDS011;18973;48.580;8.912;2022-09-21T18:56:20;1.10;;;0.88;;
32533;SDS011;18973;48.580;8.912;2022-09-21T18:58:51;1.08;;;0.77;;
32533;SDS011;18973;48.580;8.912;2022-09-21T19:01:17;0.70;;;0.70;;
32533;SDS011;18973;48.580;8.912;2022-09-21T19:03:47;0.52;;;0.52;;
32533;SDS011;18973;48.580;8.912;2022-09-21T19:09:09;0.60;;;0.60;;
32533;SDS011;18973;48.580;8.912;2022-09-21T19:11:51;0.73;;;0.60;;
32533;SDS011;18973;48.580;8.912;2022-09-21T19:28:51;1.85;;;1.08;;
32533;SDS011;18973;48.580;8.912;2022-09-21T19:31:22;1.00;;;0.80;;
32533;SDS011;18973;48.580;8.912;2022-09-21T19:33:47;1.58;;;1.45;;
32533;SDS011;18973;48.580;8.912;2022-09-21T19:36:14;1.48;;;1.20;;
32533;SDS011;18973;48.580;8.912;2022-09-21T19:38:39;1.85;;;1.35;;
32533;SDS011;18973;48.580;8.912;2022-09-21T19:41:17;3.58;;;2.13;;
32533;SDS011;18973;48.580;8.912;2022-09-21T19:46:44;6.40;;;2.78;;
32533;SDS011;18973;48.580;8.912;2022-09-21T19:49:21;6.57;;;3.45;;
32533;SDS011;18973;48.580;8.912;2022-09-21T19:51:52;7.85;;;3.08;;
32533;SDS011;18973;48.580;8.912;2022-09-21T19:54:21;4.35;;;1.70;;
32533;SDS011;18973;48.580;8.912;2022-09-21T19:57:12;3.30;;;1.95;;
32533;SDS011;18973;48.580;8.912;2022-09-21T19:59:59;0.63;;;0.63;;
32533;SDS011;18973;48.580;8.912;2022-09-21T20:02:28;0.50;;;0.50;;
32533;SDS011;18973;48.580;8.912;2022-09-21T20:04:57;1.13;;;0.70;;
32533;SDS011;18973;48.580;8.912;2022-09-21T20:12:43;0.68;;;0.68;;
32533;SDS011;18973;48.580;8.912;2022-09-21T20:15:18;0.57;;;0.57;;
32533;SDS011;18973;48.580;8.912;2022-09-21T20:17:55;0.82;;;0.82;;
32533;SDS011;18973;48.580;8.912;2022-09-21T20:20:32;0.75;;;0.73;;
32533;SDS011;18973;48.580;8.912;2022-09-21T20:22:58;1.02;;;1.00;;
32533;SDS011;18973;48.580;8.912;2022-09-21T20:25:26;0.45;;;0.45;;
32533;SDS011;18973;48.580;8.912;2022-09-21T20:27:58;0.73;;;0.70;;
32533;SDS011;18973;48.580;8.912;2022-09-21T20:30:30;1.75;;;0.80;;
32533;SDS011;18973;48.580;8.912;2022-09-21T20:33:01;0.88;;;0.88;;
32533;SDS011;18973;48.580;8.912;2022-09-21T20:35:30;0.88;;;0.88;;